Latest Weather Observations for Century Mine

IDQ60801

Issued at 7:35 pm EST Sunday 21 September 2014 (issued every 30 minutes, with the page automatically refreshed every 10 minutes)

About weather observations | Map of weather stations | Latest weather observations for QLD | Other Formats
Station Details ID: 029167 Name: CENTURY MINE Lat: -18.76 Lon: 138.71 Height: 126.8 m
Data from the previous 72 hours. | See also: Recent months at Century Mine
Date/Time
EST
Temp
°C
App
Temp
°C
Dew
Point
Rel
Hum
%
Delta-T
°C
Wind Press
QNH
hPa
Press
MSL
hPa
Rain
since 9 am
mm
Dir
 
Spd
km/h
Gust
km/h
Spd
kts
Gust
kts
21/07:30pm 28.7 24.2 -0.5 15 13.8 SSW 13 19 7 10 1014.6 1013.9 0.0
21/07:00pm 29.1 25.3 -1.1 14 14.1 SSW 9 17 5 9 1014.3 1013.6 0.0
21/06:30pm 30.2 26.7 -1.2 13 14.8 S 7 13 4 7 1013.8 1013.1 0.0
21/06:00pm 31.6 27.0 -1.2 12 15.6 SSW 13 20 7 11 1013.7 1013.0 0.0
21/05:30pm 32.4 28.1 -1.8 11 16.2 S 11 19 6 10 1013.4 1012.7 0.0
21/05:00pm 32.9 28.6 -1.4 11 16.4 SW 11 22 6 12 1013.3 1012.6 0.0
21/04:30pm 33.3 29.3 -2.4 10 16.8 S 9 22 5 12 1013.2 1012.5 0.0
21/04:00pm 33.6 29.2 -2.2 10 17.0 SSW 11 30 6 16 1013.2 1012.5 0.0
21/03:30pm 33.8 29.5 -2.0 10 17.1 WSW 11 22 6 12 1013.3 1012.6 0.0
21/03:00pm 34.2 30.3 -1.7 10 17.2 ESE 9 20 5 11 1013.6 1012.9 0.0
21/02:30pm 33.4 29.4 -2.3 10 16.9 SE 9 13 5 7 1013.9 1013.2 0.0
21/02:00pm 33.6 29.6 -2.2 10 17.0 SSE 9 19 5 10 1014.6 1013.9 0.0
21/01:30pm 32.4 27.7 -1.8 11 16.2 SE 13 26 7 14 1015.2 1014.5 0.0
21/01:00pm 31.1 26.7 -2.8 11 15.6 E 11 22 6 12 1015.9 1015.2 0.0
21/12:30pm 31.3 26.9 -2.6 11 15.7 ESE 11 24 6 13 1016.6 1015.9 0.0
21/12:00pm 31.2 26.5 -1.5 12 15.4 ESE 13 22 7 12 1017.1 1016.4 0.0
21/11:30am 30.2 25.1 -2.3 12 15.0 ESE 15 26 8 14 1017.8 1017.1 0.0
21/11:00am 29.9 24.1 -1.5 13 14.6 ESE 19 28 10 15 1018.2 1017.6 0.0
21/10:30am 29.2 22.8 -2.0 13 14.4 ESE 22 30 12 16 1018.4 1017.8 0.0
21/10:00am 28.3 22.3 -1.7 14 13.8 SSE 20 35 11 19 1018.6 1018.0 0.0
21/09:30am 27.0 20.6 -1.8 15 13.1 SE 22 33 12 18 1018.7 1018.1 0.0
21/09:00am 25.9 19.9 -1.8 16 12.5 SE 20 33 11 18 1018.9 1018.3 0.0
21/08:30am 24.7 19.3 -1.2 18 11.7 SSE 17 33 9 18 1018.9 1018.3 0.0
21/08:00am 23.4 18.3 -2.2 18 11.2 SSE 15 26 8 14 1018.6 1018.0 0.0
21/07:30am 22.4 17.2 -3.1 18 10.9 SSE 15 22 8 12 1018.2 1017.6 0.0
21/07:00am 21.4 16.5 -3.1 19 10.3 SSE 13 20 7 11 1017.8 1017.1 0.0
21/06:30am 21.8 16.5 -3.5 18 10.7 SSE 15 20 8 11 1017.3 1016.6 0.0
21/06:00am 22.5 16.8 -3.7 17 11.0 SSE 17 26 9 14 1016.9 1016.2 0.0
21/05:30am 23.4 17.2 -3.0 17 11.4 SSE 20 32 11 17 1016.3 1015.6 0.0
21/05:00am 23.1 19.3 2.0 25 10.0 SSE 11 17 6 9 1015.7 1015.0 0.0
21/04:30am 21.0 19.2 8.0 43 6.8 SE 7 9 4 5 1015.2 1014.5 0.0
21/04:00am 22.3 20.2 8.1 40 7.5 ESE 9 11 5 6 1014.9 1014.2 0.0
21/03:30am 21.5 19.9 8.7 44 6.8 ESE 7 11 4 6 1014.8 1014.1 0.0
21/03:00am 21.9 20.4 9.1 44 6.9 SE 7 11 4 6 1014.8 1014.1 0.0
21/02:30am 20.7 19.2 8.4 45 6.5 SE 6 9 3 5 1014.5 1013.8 0.0
21/02:00am 21.7 19.7 8.6 43 7.0 SSE 9 9 5 5 1014.6 1013.9 0.0
21/01:30am 22.6 21.0 8.7 41 7.4 SW 7 11 4 6 1014.3 1013.6 0.0
21/01:00am 23.1 21.1 8.8 40 7.7 SSW 9 11 5 6 1014.5 1013.8 0.0
21/12:30am 22.9 20.4 9.7 43 7.2 S 13 19 7 10 1014.7 1014.0 0.0
21/12:00am 21.7 21.0 6.8 38 7.7 SSE 0 0 0 0 1014.1 1013.4 0.0
 
Date/Time
EST
Temp
°C
App
Temp
°C
Dew
Point
Rel
Hum
%
Delta-T
°C
Wind Press
QNH
hPa
Press
MSL
hPa
Rain
since 9 am
mm
Dir
 
Spd
km/h
Gust
km/h
Spd
kts
Gust
kts
20/11:30pm 22.8 22.0 6.6 35 8.3 CALM 0 6 0 3 1014.1 1013.4 0.0
20/11:00pm 25.3 24.6 7.0 31 9.6 CALM 0 0 0 0 1014.0 1013.3 0.0
20/10:30pm 26.5 24.1 7.0 29 10.3 N 9 15 5 8 1014.2 1013.5 0.0
20/10:00pm 27.3 24.9 7.2 28 10.7 N 9 13 5 7 1013.9 1013.2 0.0
20/09:30pm 28.2 26.2 6.9 26 11.4 N 7 13 4 7 1013.8 1013.1 0.0
20/09:00pm 29.1 26.0 7.1 25 11.9 NNE 13 20 7 11 1013.7 1013.0 0.0
20/08:30pm 29.6 26.3 6.3 23 12.4 NNE 13 19 7 10 1013.5 1012.8 0.0
20/08:00pm 29.5 25.9 2.7 18 13.4 NNE 11 17 6 9 1013.2 1012.5 0.0
20/07:30pm 27.4 25.1 -2.4 14 13.4 CALM 0 0 0 0 1012.6 1011.9 0.0
20/07:00pm 29.6 27.2 -2.8 12 14.8 CALM 0 0 0 0 1012.4 1011.7 0.0
20/06:30pm 33.6 30.9 -2.2 10 17.0 N 2 7 1 4 1012.0 1011.3 0.0
20/06:00pm 35.4 33.1 -2.3 9 18.1 CALM 0 7 0 4 1011.6 1011.0 0.0
20/05:30pm 36.5 32.4 -3.0 8 18.9 NW 9 13 5 7 1011.2 1010.6 0.0
20/05:00pm 36.6 32.0 -1.4 9 18.7 NNW 13 17 7 9 1011.0 1010.3 0.0
20/04:30pm 37.0 32.2 -2.7 8 19.1 N 13 22 7 12 1011.0 1010.3 0.0
20/04:00pm 36.9 33.4 -2.7 8 19.1 E 6 11 3 6 1011.1 1010.5 0.0
20/03:30pm 37.3 33.1 -0.9 9 19.0 N 11 19 6 10 1011.3 1010.7 0.0
20/03:00pm 37.5 33.1 -2.3 8 19.4 N 11 19 6 10 1011.6 1011.0 0.0
20/02:30pm 36.9 32.7 -1.1 9 18.8 ENE 11 20 6 11 1012.2 1011.5 0.0
20/02:00pm 36.5 32.2 -1.4 9 18.6 NNE 11 22 6 12 1012.8 1012.1 0.0
20/01:30pm 36.8 31.8 -1.2 9 18.7 NE 15 20 8 11 1013.3 1012.6 0.0
20/01:00pm 35.7 30.2 -2.0 9 18.2 E 17 24 9 13 1014.1 1013.4 0.0
20/12:30pm 35.4 30.3 -2.3 9 18.1 NE 15 22 8 12 1014.8 1014.1 0.0
20/12:00pm 34.2 29.3 -3.2 9 17.5 E 13 22 7 12 1015.5 1014.8 0.0
20/11:30am 33.4 27.3 -2.3 10 16.9 E 20 30 11 16 1016.2 1015.5 0.0
20/11:00am 32.8 26.8 -2.8 10 16.6 ENE 19 28 10 15 1016.6 1015.9 0.0
20/10:30am 31.9 25.4 -2.2 11 16.0 ENE 22 33 12 18 1017.0 1016.3 0.0
20/10:00am 31.2 24.7 -2.7 11 15.6 ENE 22 32 12 17 1017.3 1016.6 0.0
20/09:30am 29.9 24.0 -2.6 12 14.9 E 19 30 10 16 1017.3 1016.6 0.0
20/09:00am 28.9 22.8 -2.3 13 14.2 E 20 32 11 17 1017.5 1016.8 0.0
20/08:30am 27.5 21.3 -3.3 13 13.7 E 20 32 11 17 1017.5 1016.8 0.0
20/08:00am 26.3 21.0 -3.3 14 13.0 ESE 15 20 8 11 1017.1 1016.4 0.0
20/07:30am 21.5 18.5 -1.7 21 10.1 SE 4 9 2 5 1017.0 1016.3 0.0
20/07:00am 18.8 15.1 -2.7 23 8.9 SSE 7 11 4 6 1016.5 1015.8 0.0
20/06:30am 16.4 12.9 -3.1 26 7.9 SSE 6 7 3 4 1016.1 1015.4 0.0
20/06:00am 16.8 12.6 -3.9 24 8.2 S 9 9 5 5 1015.8 1015.1 0.0
20/05:30am 19.2 15.0 -4.3 20 9.5 SSE 9 13 5 7 1015.5 1014.8 0.0
20/05:00am 18.7 14.8 -4.7 20 9.3 S 7 9 4 5 1015.3 1014.6 0.0
20/04:30am 19.5 15.4 -3.4 21 9.5 SSE 9 11 5 6 1015.0 1014.3 0.0
20/04:00am 19.7 15.6 -3.2 21 9.5 SSE 9 11 5 6 1015.0 1014.3 0.0
20/03:30am 17.5 13.7 -3.8 23 8.6 S 7 9 4 5 1015.1 1014.4 0.0
20/03:00am 19.4 15.6 -4.1 20 9.6 S 7 9 4 5 1015.1 1014.4 0.0
20/02:30am 20.7 16.4 -4.4 18 10.3 S 9 13 5 7 1015.2 1014.5 0.0
20/02:00am 19.0 15.0 -2.6 23 9.0 S 9 11 5 6 1015.3 1014.6 0.0
20/01:30am 17.0 13.0 -2.6 26 8.0 S 9 9 5 5 1015.6 1014.9 0.0
20/01:00am 17.2 14.4 -3.0 25 8.2 S 2 6 1 3 1015.9 1015.2 0.0
20/12:30am 17.0 13.5 -2.6 26 8.0 S 6 7 3 4 1015.9 1015.2 0.0
20/12:00am 17.4 13.9 -2.8 25 8.3 S 6 9 3 5 1016.1 1015.4 0.0
 
Date/Time
EST
Temp
°C
App
Temp
°C
Dew
Point
Rel
Hum
%
Delta-T
°C
Wind Press
QNH
hPa
Press
MSL
hPa
Rain
since 9 am
mm
Dir
 
Spd
km/h
Gust
km/h
Spd
kts
Gust
kts
19/11:30pm 18.0 14.5 -2.8 24 8.6 S 6 6 3 3 1016.1 1015.4 0.0
19/11:00pm 18.8 15.1 -2.7 23 8.9 S 7 9 4 5 1016.2 1015.5 0.0
19/10:30pm 19.8 16.3 -3.1 21 9.5 S 6 6 3 3 1016.2 1015.5 0.0
19/10:00pm 19.9 16.4 -3.0 21 9.6 S 6 7 3 4 1016.1 1015.4 0.0
19/09:30pm 20.6 16.9 -3.1 20 10.0 S 7 9 4 5 1016.1 1015.4 0.0
19/09:00pm 21.6 17.4 -3.7 18 10.6 SSW 9 9 5 5 1015.9 1015.2 0.0
19/08:30pm 22.3 18.6 -4.7 16 11.2 SSE 6 7 3 4 1015.6 1014.9 0.0
19/08:00pm 23.9 20.1 -5.2 14 12.1 SE 6 7 3 4 1015.2 1014.5 0.0
19/07:30pm 26.7 23.0 -5.0 12 13.6 ESE 6 9 3 5 1014.7 1014.0 0.0
19/07:00pm 29.5 25.7 -5.3 10 15.2 SSE 6 7 3 4 1014.1 1013.4 0.0
19/06:30pm 32.5 27.9 -4.4 9 16.7 SE 11 17 6 9 1013.6 1012.9 0.0
19/06:00pm 33.8 29.3 -3.5 9 17.3 ESE 11 19 6 10 1013.3 1012.6 0.0
19/05:30pm 34.7 29.9 -2.8 9 17.8 SSE 13 20 7 11 1013.0 1012.3 0.0
19/05:00pm 35.2 30.4 -2.4 9 18.0 SSE 13 22 7 12 1012.9 1012.2 0.0
19/04:30pm 35.3 30.5 -2.3 9 18.0 SE 13 22 7 12 1012.8 1012.1 0.0
19/04:00pm 35.8 30.7 -2.0 9 18.3 SSE 15 26 8 14 1012.9 1012.2 0.0
19/03:30pm 36.1 31.8 -1.7 9 18.4 SSE 11 20 6 11 1013.2 1012.5 0.0
19/03:00pm 35.5 31.1 -2.2 9 18.1 E 11 20 6 11 1013.6 1012.9 0.0
19/02:30pm 34.7 29.9 -2.8 9 17.8 SE 13 24 7 13 1014.1 1013.4 0.0
19/02:00pm 35.1 29.2 -2.5 9 17.9 SE 19 22 10 12 1014.7 1014.0 0.0
19/01:30pm 34.2 30.7 -3.2 9 17.5 E 6 13 3 7 1015.3 1014.6 0.0
19/01:00pm 33.3 27.6 -3.8 9 17.1 ESE 17 22 9 12 1016.0 1015.3 0.0
19/12:30pm 33.4 28.7 -5.3 8 17.4 ENE 11 20 6 11 1016.7 1016.0 0.0
19/12:00pm 33.4 28.7 -5.3 8 17.4 ESE 11 19 6 10 1017.4 1016.7 0.0
19/11:30am 31.8 26.4 -4.9 9 16.4 ESE 15 24 8 13 1018.0 1017.3 0.0
19/11:00am 31.3 25.1 -5.3 9 16.2 ESE 19 24 10 13 1018.4 1017.8 0.0
19/10:30am 30.7 24.4 -5.8 9 15.9 SE 19 28 10 15 1018.8 1018.2 0.0
19/10:00am 30.1 23.8 -6.2 9 15.6 ESE 19 28 10 15 1019.0 1018.4 0.0
19/09:30am 28.3 21.8 -6.2 10 14.7 ESE 20 32 11 17 1019.1 1018.5 0.0
19/09:00am 27.3 21.4 -5.7 11 14.0 ESE 17 20 9 11 1019.0 1018.4 0.0
19/08:30am 25.4 20.7 -5.0 13 12.9 SE 11 17 6 9 1018.9 1018.3 0.0
19/08:00am 22.8 20.9 0.6 23 10.2 CALM 0 0 0 0 1018.6 1018.0 0.0
19/07:57am 21.4 19.6 1.1 26 9.3 CALM 0 0 0 0 1018.6 1018.0 0.0
19/07:30am 16.2 14.8 3.3 42 5.9 CALM 0 0 0 0 1018.1 1017.5 0.0
19/07:00am 13.1 10.3 2.1 47 4.8 SSW 6 9 3 5 1017.7 1017.0 0.0
19/06:30am 12.6 10.9 1.6 47 4.7 CALM 0 0 0 0 1017.4 1016.7 0.0
19/06:00am 12.8 11.0 1.2 45 4.9 CALM 0 0 0 0 1017.1 1016.4 0.0
19/05:30am 13.1 10.0 1.1 44 5.1 SSW 7 9 4 5 1016.9 1016.2 0.0
19/05:00am 13.8 12.0 1.5 43 5.3 CALM 0 4 0 2 1016.7 1016.0 0.0
19/04:30am 14.1 11.1 1.1 41 5.6 SSW 6 7 3 4 1016.6 1015.9 0.0
19/04:00am 14.2 10.9 0.1 38 6.0 SSW 7 9 4 5 1016.4 1015.7 0.0
19/03:30am 14.7 11.6 0.2 37 6.2 SSW 6 11 3 6 1016.5 1015.8 0.0
19/03:00am 15.6 13.6 0.2 35 6.6 CALM 0 0 0 0 1016.6 1015.9 0.0
19/02:30am 17.0 15.0 0.2 32 7.3 CALM 0 4 0 2 1016.8 1016.1 0.0
19/02:00am 16.6 14.2 -0.1 32 7.2 SW 2 6 1 3 1016.8 1016.1 0.0
19/01:30am 17.2 14.8 -0.1 31 7.5 N 2 13 1 7 1016.9 1016.2 0.0
19/01:00am 18.2 14.9 -0.1 29 8.0 N 7 13 4 7 1016.7 1016.0 0.0
19/12:30am 18.4 14.7 0.1 29 8.0 SSW 9 9 5 5 1016.8 1016.1 0.0
19/12:00am 19.1 15.4 0.2 28 8.4 SW 9 11 5 6 1016.9 1016.2 0.0
 
Date/Time
EST
Temp
°C
App
Temp
°C
Dew
Point
Rel
Hum
%
Delta-T
°C
Wind Press
QNH
hPa
Press
MSL
hPa
Rain
since 9 am
mm
Dir
 
Spd
km/h
Gust
km/h
Spd
kts
Gust
kts
18/11:30pm 18.7 15.0 -0.2 28 8.3 SW 9 11 5 6 1017.0 1016.3 0.0
18/11:00pm 19.3 16.0 -0.1 27 8.5 SSW 7 9 4 5 1017.0 1016.3 0.0
18/10:30pm 19.6 16.4 -0.4 26 8.8 SSW 6 7 3 4 1017.0 1016.3 0.0
18/10:00pm 19.8 16.6 -0.8 25 9.0 S 6 7 3 4 1016.8 1016.1 0.0
18/09:30pm 21.1 17.8 -0.2 24 9.5 SW 7 9 4 5 1016.7 1016.0 0.0
18/09:00pm 21.3 19.2 -0.6 23 9.7 CALM 0 0 0 0 1016.4 1015.7 0.0
18/08:30pm 22.1 20.0 -0.6 22 10.1 CALM 0 0 0 0 1016.0 1015.3 0.0
18/08:00pm 23.6 20.7 -1.3 19 11.1 ENE 4 7 2 4 1015.6 1014.9 0.0

Other Formats:

Comma delimited format used in spreadsheet applications
http://www.bom.gov.au/fwo/IDQ60801/IDQ60801.94261.axf

JavaScript Object Notation format (JSON) in row-major order
http://www.bom.gov.au/fwo/IDQ60801/IDQ60801.94261.json